Time;durP1;ratioP1;P1;durP2;ratioP2;P2;SDS_P1;SDS_P2;PMS_P1;PMS_P2;Temp;Humidity;BMP_temperature;BMP_pressure;BME280_temperature;BME280_humidity;BME280_pressure;Samples;Min_cycle;Max_cycle;Signal;HPM_P1;HPM_P2
2022/06/17 00:01:21;;;;;;;8.57;6.70;;;13.20;99.90;;;;;;5045349;28;20045;-65
2022/06/17 00:03:48;;;;;;;11.05;7.38;;;13.20;99.90;;;;;;5046330;28;20080;-65
2022/06/17 00:06:15;;;;;;;8.20;5.95;;;13.30;99.90;;;;;;5049821;28;20045;-65
2022/06/17 00:08:44;;;;;;;8.20;6.55;;;13.20;99.90;;;;;;5064777;28;20049;-65
2022/06/17 00:11:15;;;;;;;7.50;5.95;;;13.40;99.90;;;;;;5064545;28;20052;-65
2022/06/17 00:13:42;;;;;;;7.95;6.03;;;13.20;99.90;;;;;;5045474;28;20044;-65
2022/06/17 00:16:12;;;;;;;7.35;5.93;;;13.20;99.90;;;;;;5081156;28;20052;-65
2022/06/17 00:18:39;;;;;;;6.50;5.75;;;13.20;99.90;;;;;;5043311;28;20059;-65
2022/06/17 00:21:05;;;;;;;8.25;6.07;;;13.20;99.90;;;;;;5047253;28;20053;-65
2022/06/17 00:23:30;;;;;;;6.70;5.70;;;13.10;99.90;;;;;;5045783;28;20080;-65
2022/06/17 00:25:56;;;;;;;6.50;5.75;;;13.00;99.90;;;;;;5031556;28;20128;-65
2022/06/17 00:28:23;;;;;;;7.75;6.10;;;12.80;99.90;;;;;;5051309;28;20052;-65
2022/06/17 00:30:50;;;;;;;7.60;5.40;;;12.70;99.90;;;;;;5050276;28;20132;-65
2022/06/17 00:33:18;;;;;;;6.72;5.63;;;12.30;99.90;;;;;;5062744;28;20045;-65
2022/06/17 00:35:47;;;;;;;8.23;6.97;;;12.30;99.90;;;;;;5043271;28;20108;-65
2022/06/17 00:38:15;;;;;;;7.30;6.20;;;12.20;99.90;;;;;;5054376;28;20048;-65
2022/06/17 00:40:43;;;;;;;8.15;6.50;;;12.20;99.90;;;;;;5058047;28;20045;-65
2022/06/17 00:43:22;;;;;;;6.97;5.93;;;12.30;99.90;;;;;;5077779;28;20044;-65
2022/06/17 00:45:53;;;;;;;8.57;6.65;;;12.30;99.90;;;;;;5047596;28;20124;-65
2022/06/17 00:48:27;;;;;;;7.70;6.80;;;12.50;99.90;;;;;;5046206;28;20129;-65
2022/06/17 00:50:59;;;;;;;9.55;6.75;;;12.60;99.90;;;;;;5050937;28;20410;-65
2022/06/17 00:53:30;;;;;;;7.75;6.88;;;12.60;99.90;;;;;;5041619;28;20048;-65
2022/06/17 00:55:56;;;;;;;8.75;6.75;;;12.50;99.90;;;;;;5047278;28;20075;-64
2022/06/17 00:58:25;;;;;;;6.88;6.20;;;12.40;99.90;;;;;;5065618;28;20103;-65
2022/06/17 01:00:56;;;;;;;7.10;6.40;;;12.40;99.90;;;;;;5064798;28;20119;-64
2022/06/17 01:03:27;;;;;;;8.57;7.03;;;12.40;99.90;;;;;;5060734;28;20040;-65
2022/06/17 01:06:00;;;;;;;8.40;6.55;;;12.60;99.90;;;;;;5049227;28;20084;-64
2022/06/17 01:11:16;;;;;;;7.40;6.70;;;12.50;99.90;;;;;;5053200;28;20051;-65
2022/06/17 01:13:47;;;;;;;8.15;7.13;;;12.60;99.90;;;;;;5047848;28;20087;-64
2022/06/17 01:16:14;;;;;;;9.43;7.82;;;12.60;99.90;;;;;;5047836;28;20091;-64
2022/06/17 01:18:43;;;;;;;7.95;6.90;;;12.60;99.90;;;;;;5047807;28;20048;-65
2022/06/17 01:21:23;;;;;;;8.25;6.28;;;12.60;99.90;;;;;;5061834;28;20059;-65
2022/06/17 01:23:49;;;;;;;8.63;7.22;;;12.60;99.90;;;;;;5052561;28;20087;-65
2022/06/17 01:26:17;;;;;;;8.27;6.75;;;12.50;99.90;;;;;;5046671;28;20047;-65
2022/06/17 01:28:43;;;;;;;8.00;6.60;;;12.60;99.90;;;;;;5048167;28;20558;-65
2022/06/17 01:31:09;;;;;;;8.65;6.47;;;12.30;99.90;;;;;;5052429;28;20072;-65
2022/06/17 01:33:38;;;;;;;7.95;6.90;;;12.30;99.90;;;;;;5063754;28;20100;-65
2022/06/17 01:36:07;;;;;;;8.70;7.30;;;12.10;99.90;;;;;;5047937;28;20049;-64
2022/06/17 01:38:36;;;;;;;9.77;7.47;;;12.10;99.90;;;;;;5060032;28;20049;-65
2022/06/17 01:41:03;;;;;;;7.03;6.05;;;12.10;99.90;;;;;;5053217;28;20044;-65
2022/06/17 01:43:39;;;;;;;8.18;6.30;;;12.00;99.90;;;;;;5051220;28;20070;-64
2022/06/17 01:46:12;;;;;;;7.00;6.30;;;12.00;99.90;;;;;;5051292;28;20045;-65
2022/06/17 01:48:42;;;;;;;9.05;7.32;;;12.10;99.90;;;;;;5058166;28;20079;-65
2022/06/17 01:51:10;;;;;;;7.47;6.15;;;12.10;99.90;;;;;;5053231;28;20080;-64
2022/06/17 01:53:42;;;;;;;7.82;6.20;;;12.00;99.90;;;;;;5046906;28;20049;-64
2022/06/17 01:56:15;;;;;;;9.73;7.10;;;12.00;99.90;;;;;;5055765;28;20064;-65
2022/06/17 01:58:52;;;;;;;8.10;6.63;;;11.90;99.90;;;;;;5047557;28;20048;-64
2022/06/17 02:01:18;;;;;;;9.20;6.63;;;11.90;99.90;;;;;;5046318;28;20128;-64
2022/06/17 02:03:57;;;;;;;6.75;5.85;;;11.90;99.90;;;;;;5046488;28;20041;-64
2022/06/17 02:06:33;;;;;;;6.95;6.25;;;11.90;99.90;;;;;;5072325;28;20045;-64
2022/06/17 02:09:00;;;;;;;8.93;6.28;;;11.80;99.90;;;;;;5064182;28;20040;-64
2022/06/17 02:11:26;;;;;;;6.80;6.05;;;11.80;99.90;;;;;;5052825;28;20059;-64
2022/06/17 02:13:52;;;;;;;5.65;5.15;;;11.60;99.90;;;;;;5046750;28;20113;-64
2022/06/17 02:16:19;;;;;;;7.05;5.55;;;11.40;99.90;;;;;;5077334;28;20049;-64
2022/06/17 02:18:45;;;;;;;6.05;5.25;;;11.60;99.90;;;;;;5060625;28;20100;-65
2022/06/17 02:21:19;;;;;;;6.97;6.28;;;11.60;99.90;;;;;;5033318;28;20041;-65
2022/06/17 02:23:45;;;;;;;7.30;6.15;;;11.50;99.90;;;;;;5061763;28;20508;-64
2022/06/17 02:26:12;;;;;;;7.13;5.70;;;11.50;99.90;;;;;;5057513;28;20044;-64
2022/06/17 02:28:39;;;;;;;10.52;9.35;;;11.40;99.90;;;;;;5049938;28;20048;-64
2022/06/17 02:31:08;;;;;;;13.90;11.38;;;11.70;99.90;;;;;;5049796;28;20048;-65
2022/06/17 02:33:35;;;;;;;14.10;12.35;;;12.00;99.90;;;;;;5055451;28;20079;-65
2022/06/17 02:36:17;;;;;;;13.88;12.05;;;12.40;99.90;;;;;;5060265;28;20052;-65
2022/06/17 02:38:43;;;;;;;14.48;11.82;;;12.80;99.90;;;;;;5045390;28;20055;-65
2022/06/17 02:41:16;;;;;;;13.65;11.43;;;13.00;99.90;;;;;;5049652;28;20072;-64
2022/06/17 02:44:03;;;;;;;14.80;12.93;;;13.40;99.90;;;;;;5056733;28;20059;-64
2022/06/17 02:46:34;;;;;;;13.93;11.65;;;13.60;99.90;;;;;;5044724;28;20045;-65
2022/06/17 02:49:03;;;;;;;15.88;12.77;;;13.60;99.90;;;;;;5049736;28;20045;-64
2022/06/17 02:51:33;;;;;;;17.65;12.55;;;13.80;99.90;;;;;;5056447;28;20131;-65
2022/06/17 02:54:01;;;;;;;14.13;11.63;;;13.80;99.90;;;;;;5046643;28;20075;-64
2022/06/17 02:56:31;;;;;;;14.60;11.55;;;13.90;99.90;;;;;;5060692;28;20084;-65
2022/06/17 02:59:22;;;;;;;13.13;11.43;;;14.10;99.90;;;;;;5051592;28;20104;-65
2022/06/17 03:01:51;;;;;;;17.05;11.40;;;14.10;99.90;;;;;;5067090;28;20045;-64
2022/06/17 03:04:25;;;;;;;15.13;9.97;;;14.10;99.90;;;;;;5044230;28;20045;-65
2022/06/17 03:06:51;;;;;;;13.07;10.32;;;14.10;99.90;;;;;;5048270;28;20068;-65
2022/06/17 03:09:25;;;;;;;12.95;11.20;;;14.00;99.90;;;;;;5060363;28;20048;-65
2022/06/17 03:12:06;;;;;;;12.48;11.18;;;13.80;99.90;;;;;;5067905;28;20049;-65
2022/06/17 03:14:44;;;;;;;15.52;10.63;;;13.60;99.90;;;;;;5047105;28;20075;-65
2022/06/17 03:17:13;;;;;;;12.15;10.85;;;13.40;99.90;;;;;;5063015;28;20045;-65
2022/06/17 03:19:40;;;;;;;10.60;9.60;;;13.20;99.90;;;;;;5066685;28;20404;-64
2022/06/17 03:22:09;;;;;;;10.40;9.07;;;13.10;99.90;;;;;;5056218;28;20055;-64
2022/06/17 03:25:07;;;;;;;10.00;9.00;;;12.90;99.90;;;;;;5061018;28;20082;-65
2022/06/17 03:27:48;;;;;;;13.00;9.93;;;12.60;99.90;;;;;;5048577;28;20080;-65
2022/06/17 03:30:21;;;;;;;12.27;10.25;;;12.40;99.90;;;;;;5052405;28;20056;-65
2022/06/17 03:32:53;;;;;;;9.88;8.88;;;12.30;99.90;;;;;;5053191;28;20045;-65
2022/06/17 03:35:25;;;;;;;11.15;8.98;;;12.30;99.90;;;;;;5048020;28;20121;-65
2022/06/17 03:38:27;;;;;;;12.80;10.23;;;12.20;99.90;;;;;;5043370;28;20053;-65
2022/06/17 03:41:00;;;;;;;13.60;10.35;;;12.30;99.90;;;;;;5077527;28;20063;-65
2022/06/17 03:43:31;;;;;;;13.85;10.43;;;12.40;99.90;;;;;;5043328;28;20079;-65
2022/06/17 03:46:03;;;;;;;11.93;10.27;;;12.40;99.90;;;;;;5044112;28;20049;-64
2022/06/17 03:48:51;;;;;;;11.55;10.00;;;12.50;99.90;;;;;;5052498;28;20053;-65
2022/06/17 03:51:21;;;;;;;10.88;9.77;;;12.60;99.90;;;;;;5047820;28;20045;-64
2022/06/17 03:53:48;;;;;;;11.75;10.05;;;12.80;99.90;;;;;;5057379;28;20044;-64
2022/06/17 03:56:19;;;;;;;13.70;10.05;;;12.90;99.90;;;;;;5063405;28;20045;-64
2022/06/17 03:58:46;;;;;;;13.85;10.40;;;12.90;99.90;;;;;;5047457;28;20049;-65
2022/06/17 04:01:27;;;;;;;12.02;10.68;;;13.10;99.90;;;;;;5066793;28;20045;-65
2022/06/17 04:04:00;;;;;;;12.45;9.82;;;13.20;99.90;;;;;;5063697;28;20079;-65
2022/06/17 04:06:36;;;;;;;11.40;8.68;;;13.20;99.90;;;;;;5060589;28;20057;-65
2022/06/17 04:09:13;;;;;;;13.32;10.32;;;13.30;99.90;;;;;;5050866;28;20040;-65
2022/06/17 04:11:42;;;;;;;11.77;10.43;;;13.30;99.90;;;;;;5050164;28;20040;-64
2022/06/17 04:14:18;;;;;;;12.18;10.68;;;13.40;99.90;;;;;;5064081;28;20051;-65
2022/06/17 04:17:12;;;;;;;14.43;11.77;;;13.30;99.90;;;;;;5059818;28;20104;-64
2022/06/17 04:19:40;;;;;;;12.77;11.40;;;13.30;99.90;;;;;;5059419;28;20075;-65
2022/06/17 04:22:19;;;;;;;14.93;12.10;;;13.30;99.90;;;;;;5064933;28;20051;-64
2022/06/17 04:24:51;;;;;;;14.57;11.65;;;13.50;99.90;;;;;;5054864;28;20075;-65
2022/06/17 04:27:18;;;;;;;13.98;10.70;;;13.60;99.90;;;;;;5047603;28;20040;-65
2022/06/17 04:29:48;;;;;;;13.48;11.43;;;13.80;99.90;;;;;;5043118;28;20397;-65
2022/06/17 04:32:13;;;;;;;;;;;14.00;99.90;;;;;;5062699;28;20049;-65
2022/06/17 04:34:39;;;;;;;14.77;11.73;;;14.10;99.90;;;;;;5053229;28;19927;-65
2022/06/17 04:37:09;;;;;;;15.88;11.40;;;14.40;99.90;;;;;;5018372;28;20040;-65
2022/06/17 04:39:48;;;;;;;12.77;9.65;;;14.60;99.90;;;;;;5047286;28;20053;-65
2022/06/17 04:42:28;;;;;;;12.07;9.85;;;14.60;99.90;;;;;;5055588;28;20489;-64
2022/06/17 04:44:54;;;;;;;15.80;14.60;;;14.70;99.90;;;;;;5014374;28;20075;-64
2022/06/17 04:47:22;;;;;;;12.60;11.07;;;14.70;99.90;;;;;;5023998;28;20072;-65
2022/06/17 04:49:56;;;;;;;11.85;10.07;;;14.90;99.90;;;;;;5019179;28;20056;-65
2022/06/17 04:52:25;;;;;;;11.73;10.30;;;14.80;99.90;;;;;;5038063;28;20059;-65
2022/06/17 04:54:51;;;;;;;13.57;10.57;;;14.90;99.90;;;;;;5045823;28;20044;-64
2022/06/17 04:57:17;;;;;;;13.02;10.32;;;15.10;99.90;;;;;;5041639;28;20053;-63
2022/06/17 04:59:44;;;;;;;14.10;11.13;;;15.10;99.90;;;;;;5022378;28;20474;-64
2022/06/17 05:02:22;;;;;;;12.07;10.07;;;15.20;99.90;;;;;;5032961;28;20139;-65
2022/06/17 05:04:51;;;;;;;11.60;10.43;;;15.20;99.90;;;;;;5021930;28;20528;-65
2022/06/17 05:07:18;;;;;;;13.68;10.95;;;15.20;99.90;;;;;;5029068;28;20060;-65
2022/06/17 05:09:59;;;;;;;14.13;10.75;;;15.20;99.90;;;;;;5026263;28;20051;-65
2022/06/17 05:12:38;;;;;;;13.23;9.82;;;15.30;99.90;;;;;;5033813;28;20033;-65
2022/06/17 05:15:07;;;;;;;10.32;8.90;;;15.40;99.90;;;;;;5040661;28;20124;-65
2022/06/17 05:17:33;;;;;;;9.27;8.25;;;15.50;99.90;;;;;;5036439;28;20049;-65
2022/06/17 05:19:59;;;;;;;11.50;8.43;;;15.50;99.90;;;;;;5023625;28;20110;-64
2022/06/17 05:22:37;;;;;;;10.50;8.18;;;15.50;99.90;;;;;;5040391;28;20147;-65
2022/06/17 05:25:10;;;;;;;10.63;8.43;;;15.70;99.90;;;;;;5026931;28;20131;-64
2022/06/17 05:27:36;;;;;;;10.73;9.50;;;15.70;99.90;;;;;;5040373;28;20037;-64
2022/06/17 05:30:02;;;;;;;15.50;13.90;;;15.80;99.90;;;;;;5047075;28;20107;-64
2022/06/17 05:32:29;;;;;;;16.35;14.65;;;15.90;99.90;;;;;;5060891;28;20484;-64
2022/06/17 05:34:55;;;;;;;13.45;11.95;;;15.90;99.90;;;;;;5046585;28;20037;-64
2022/06/17 05:37:20;;;;;;;14.30;12.80;;;16.00;99.90;;;;;;5039099;28;20099;-64
2022/06/17 05:39:46;;;;;;;11.32;10.13;;;16.10;99.90;;;;;;5041783;28;20083;-64
2022/06/17 05:42:12;;;;;;;13.43;9.45;;;16.00;99.90;;;;;;5038886;28;20056;-63
2022/06/17 05:44:38;;;;;;;10.88;9.77;;;16.10;99.90;;;;;;5038785;28;20111;-64
2022/06/17 05:47:04;;;;;;;13.30;10.30;;;16.00;99.90;;;;;;5014228;28;20049;-64
2022/06/17 05:49:30;;;;;;;11.20;9.80;;;16.10;99.90;;;;;;5029823;28;20088;-64
2022/06/17 05:51:56;;;;;;;11.10;9.18;;;16.20;99.90;;;;;;5005273;28;20068;-63
2022/06/17 05:54:21;;;;;;;11.43;9.82;;;16.30;99.90;;;;;;5015132;28;20479;-64
2022/06/17 05:56:47;;;;;;;13.70;10.82;;;16.30;99.90;;;;;;5041804;28;20200;-64
2022/06/17 05:59:13;;;;;;;11.63;9.10;;;16.20;99.90;;;;;;5033461;28;20114;-64
2022/06/17 06:01:38;;;;;;;13.02;9.15;;;16.50;99.90;;;;;;5043674;28;20068;-64
2022/06/17 06:04:04;;;;;;;13.82;8.93;;;16.50;99.90;;;;;;5050586;28;20033;-64
2022/06/17 06:06:30;;;;;;;13.15;9.02;;;16.80;99.90;;;;;;5010736;28;20049;-64
2022/06/17 06:08:56;;;;;;;10.32;8.60;;;16.70;99.90;;;;;;5031864;28;20045;-65
2022/06/17 06:11:22;;;;;;;10.82;7.82;;;16.70;99.90;;;;;;5021784;28;20045;-64
2022/06/17 06:13:47;;;;;;;9.90;7.75;;;16.80;99.90;;;;;;5021577;28;20328;-64
2022/06/17 06:16:15;;;;;;;14.43;8.63;;;16.90;99.90;;;;;;5010591;28;20080;-64
2022/06/17 06:18:41;;;;;;;9.65;7.78;;;17.10;99.90;;;;;;5022155;28;20054;-64
2022/06/17 06:21:08;;;;;;;9.07;7.47;;;17.30;99.90;;;;;;5010113;28;20080;-65
2022/06/17 06:23:38;;;;;;;12.68;9.35;;;17.10;99.90;;;;;;5021457;28;20133;-64
2022/06/17 06:26:07;;;;;;;12.35;8.63;;;17.20;99.90;;;;;;5017571;28;20529;-64
2022/06/17 06:28:33;;;;;;;13.60;9.03;;;17.30;99.90;;;;;;5035080;28;20049;-65
2022/06/17 06:31:27;;;;;;;13.32;8.93;;;17.40;99.90;;;;;;5009697;28;20072;-64
2022/06/17 06:33:53;;;;;;;11.07;8.90;;;17.50;99.90;;;;;;5022747;28;20053;-64
2022/06/17 06:36:19;;;;;;;13.73;10.05;;;17.60;99.90;;;;;;5030118;28;20125;-64
2022/06/17 06:38:45;;;;;;;11.27;8.82;;;17.60;99.90;;;;;;5002915;28;20279;-64
2022/06/17 06:41:10;;;;;;;14.88;8.45;;;17.50;99.90;;;;;;5008707;28;20079;-64
2022/06/17 06:43:37;;;;;;;12.98;9.50;;;17.60;99.90;;;;;;5055435;28;20049;-64
2022/06/17 06:46:09;;;;;;;13.15;8.45;;;17.60;99.90;;;;;;4994931;28;20069;-64
2022/06/17 06:48:35;;;;;;;10.85;9.23;;;17.60;99.90;;;;;;5038271;28;20056;-64
2022/06/17 06:51:01;;;;;;;10.63;9.05;;;17.60;99.90;;;;;;5028579;28;20053;-64
2022/06/17 06:53:27;;;;;;;12.05;9.38;;;17.70;99.90;;;;;;5029545;28;20041;-64
2022/06/17 06:55:52;;;;;;;10.27;9.23;;;17.80;99.90;;;;;;5011344;28;20057;-64
2022/06/17 06:58:21;;;;;;;13.30;9.63;;;17.80;99.90;;;;;;5020518;28;20041;-64
2022/06/17 07:00:50;;;;;;;13.50;9.45;;;17.80;99.90;;;;;;5012619;28;20100;-64
2022/06/17 07:03:18;;;;;;;10.37;9.27;;;18.10;99.90;;;;;;5019799;28;20060;-64
2022/06/17 07:05:50;;;;;;;10.57;9.50;;;18.00;99.90;;;;;;5011978;28;20339;-64
2022/06/17 07:08:22;;;;;;;11.55;9.30;;;18.00;99.90;;;;;;5019903;28;20042;-64
2022/06/17 07:10:50;;;;;;;10.80;8.55;;;18.40;99.90;;;;;;5013046;28;20056;-64
2022/06/17 07:13:16;;;;;;;11.18;9.35;;;18.20;99.90;;;;;;5013960;28;20057;-64
2022/06/17 07:15:44;;;;;;;12.50;9.63;;;18.40;99.90;;;;;;5011883;28;20054;-64
2022/06/17 07:18:16;;;;;;;12.80;9.15;;;18.60;99.90;;;;;;5018690;28;20046;-64
2022/06/17 07:20:58;;;;;;;9.88;8.85;;;18.40;99.90;;;;;;5015230;28;20060;-65
2022/06/17 07:23:30;;;;;;;11.75;9.35;;;18.50;99.90;;;;;;5016950;28;20066;-64
2022/06/17 07:25:58;;;;;;;10.98;9.52;;;18.70;99.90;;;;;;5015555;28;20501;-62
2022/06/17 07:28:25;;;;;;;10.60;9.50;;;19.20;99.90;;;;;;5016582;28;20599;-63
2022/06/17 07:30:53;;;;;;;11.73;9.25;;;18.90;99.90;;;;;;5012286;28;20041;-63
2022/06/17 07:33:21;;;;;;;11.38;9.07;;;19.10;99.90;;;;;;5007068;28;20050;-62
2022/06/17 07:35:53;;;;;;;11.32;8.82;;;19.10;99.90;;;;;;5018343;28;20049;-62
2022/06/17 07:41:08;;;;;;;13.00;8.88;;;19.10;99.90;;;;;;5023578;28;20418;-62
2022/06/17 07:43:34;;;;;;;9.30;8.35;;;19.30;99.90;;;;;;5015493;28;20100;-62
2022/06/17 07:46:01;;;;;;;10.98;8.48;;;19.30;99.90;;;;;;4990809;28;20084;-62
2022/06/17 07:48:27;;;;;;;8.88;7.18;;;19.60;99.90;;;;;;5011834;28;20049;-62
2022/06/17 07:50:58;;;;;;;10.27;8.18;;;19.50;99.90;;;;;;5012518;28;20611;-62
2022/06/17 07:53:26;;;;;;;9.05;7.82;;;19.60;99.90;;;;;;5016593;28;20042;-62
2022/06/17 07:55:52;;;;;;;11.63;7.88;;;19.50;99.90;;;;;;5011419;28;20492;-62
2022/06/17 07:58:18;;;;;;;9.02;7.63;;;19.60;99.90;;;;;;5015627;28;20084;-62
2022/06/17 08:00:46;;;;;;;8.45;7.45;;;19.60;99.90;;;;;;4993552;28;20285;-63
2022/06/17 08:03:15;;;;;;;8.77;7.88;;;19.80;99.90;;;;;;5015368;28;20052;-63
2022/06/17 08:05:44;;;;;;;10.95;7.95;;;19.90;99.90;;;;;;5014102;28;20152;-62
2022/06/17 08:08:10;;;;;;;14.35;8.13;;;20.00;99.90;;;;;;5016389;28;20050;-63
2022/06/17 08:10:37;;;;;;;8.40;7.50;;;20.40;99.90;;;;;;5009725;28;20350;-62
2022/06/17 08:13:08;;;;;;;10.25;7.43;;;20.40;99.90;;;;;;5010163;28;20049;-62
2022/06/17 08:15:34;;;;;;;10.20;8.00;;;20.50;99.90;;;;;;5008501;28;20061;-60
2022/06/17 08:18:00;;;;;;;14.25;7.50;;;20.60;99.90;;;;;;4999048;28;20109;-60
2022/06/17 08:20:28;;;;;;;11.18;7.30;;;20.90;99.90;;;;;;5011187;28;20077;-61
2022/06/17 08:22:54;;;;;;;9.15;6.55;;;21.00;99.90;;;;;;5015394;28;20065;-63
2022/06/17 08:25:21;;;;;;;7.57;6.53;;;20.90;99.90;;;;;;5011966;28;20621;-63
2022/06/17 08:27:57;;;;;;;7.22;6.53;;;21.00;99.90;;;;;;5014122;28;20205;-63
2022/06/17 08:30:27;;;;;;;8.68;6.40;;;21.00;99.90;;;;;;5013121;28;20076;-63
2022/06/17 08:32:55;;;;;;;7.65;5.70;;;20.90;99.90;;;;;;5015265;28;20380;-63
2022/06/17 08:35:41;;;;;;;7.93;6.00;;;21.20;99.90;;;;;;4988438;28;20081;-63
2022/06/17 08:38:16;;;;;;;13.48;6.40;;;21.00;99.90;;;;;;5008515;28;20084;-63
2022/06/17 08:40:53;;;;;;;7.88;6.00;;;21.00;99.90;;;;;;5005346;28;20431;-63
2022/06/17 08:43:37;;;;;;;9.55;6.13;;;20.90;99.90;;;;;;5014036;28;20414;-63
2022/06/17 08:46:13;;;;;;;9.43;6.03;;;20.90;99.90;;;;;;4990436;28;20061;-63
2022/06/17 08:49:10;;;;;;;8.73;5.80;;;21.10;99.90;;;;;;5019036;28;20109;-63
2022/06/17 08:51:54;;;;;;;7.40;5.45;;;21.50;99.90;;;;;;5030184;28;20053;-63
2022/06/17 08:54:30;;;;;;;9.73;6.00;;;21.60;99.90;;;;;;5041199;28;20377;-63
2022/06/17 08:57:01;;;;;;;9.02;5.55;;;21.60;99.90;;;;;;5021918;28;20652;-63
2022/06/17 08:59:55;;;;;;;8.65;5.72;;;22.00;99.90;;;;;;5018359;28;20104;-63
2022/06/17 09:02:26;;;;;;;5.93;5.00;;;22.20;99.90;;;;;;4989410;28;20632;-63
2022/06/17 09:05:31;;;;;;;7.50;5.30;;;22.10;99.90;;;;;;5015005;28;20112;-64
2022/06/17 09:08:23;;;;;;;9.02;6.22;;;22.30;99.90;;;;;;5033036;28;20049;-63
2022/06/17 09:11:25;;;;;;;9.38;5.80;;;22.10;99.90;;;;;;5025742;28;20049;-63
2022/06/17 09:14:11;;;;;;;8.20;5.65;;;22.50;99.90;;;;;;5032432;28;20264;-63
2022/06/17 09:17:02;;;;;;;8.52;6.13;;;22.10;99.90;;;;;;5029322;28;20349;-63
2022/06/17 09:19:33;;;;;;;12.43;6.22;;;22.20;99.90;;;;;;5027165;28;20510;-63
2022/06/17 09:22:13;;;;;;;10.70;6.93;;;22.00;99.90;;;;;;5040431;28;20049;-63
2022/06/17 09:24:42;;;;;;;7.22;5.22;;;22.20;99.90;;;;;;5034269;28;20045;-63
2022/06/17 09:27:33;;;;;;;10.82;6.07;;;22.30;99.90;;;;;;5018067;28;20316;-63
2022/06/17 09:30:03;;;;;;;9.93;6.57;;;22.20;99.90;;;;;;5018833;28;20046;-63
2022/06/17 09:33:05;;;;;;;10.93;6.95;;;22.20;99.90;;;;;;5033925;28;20449;-64
2022/06/17 09:35:36;;;;;;;7.70;5.93;;;22.30;99.90;;;;;;5022852;28;20488;-63
2022/06/17 09:38:13;;;;;;;9.18;6.28;;;22.30;99.90;;;;;;5036639;28;20396;-63
2022/06/17 09:41:01;;;;;;;8.57;6.47;;;22.30;99.90;;;;;;5032430;28;20100;-63
2022/06/17 09:43:43;;;;;;;10.13;6.95;;;22.40;99.90;;;;;;5032820;28;20371;-63
2022/06/17 09:46:46;;;;;;;9.50;5.88;;;22.40;99.90;;;;;;5014984;28;20579;-63
2022/06/17 09:49:27;;;;;;;8.32;6.80;;;22.50;99.90;;;;;;5036984;28;20049;-63
2022/06/17 09:52:07;;;;;;;9.20;7.57;;;22.60;99.90;;;;;;5031834;28;20052;-63
2022/06/17 09:54:45;;;;;;;10.75;7.43;;;22.60;99.90;;;;;;5034200;28;20345;-63
2022/06/17 09:57:24;;;;;;;15.10;6.95;;;22.60;99.90;;;;;;5024397;28;20116;-63
2022/06/17 10:00:03;;;;;;;14.73;7.35;;;22.80;99.90;;;;;;5030231;28;20124;-62
2022/06/17 10:02:30;;;;;;;;;;;22.90;99.90;;;;;;5009545;28;20054;-63
2022/06/17 10:04:58;;;;;;;11.25;6.32;;;22.90;99.90;;;;;;5004414;28;19922;-64
2022/06/17 10:07:52;;;;;;;9.18;6.10;;;23.20;99.90;;;;;;5017018;28;20061;-63
2022/06/17 10:10:28;;;;;;;8.95;5.93;;;23.10;99.90;;;;;;5016314;28;20060;-63
2022/06/17 10:13:11;;;;;;;9.20;5.47;;;23.20;99.90;;;;;;5024443;28;20061;-65
2022/06/17 10:18:55;;;;;;;8.00;5.47;;;23.50;99.90;;;;;;5011890;28;20406;-63
2022/06/17 10:21:27;;;;;;;8.85;5.18;;;23.20;99.90;;;;;;5029166;28;20057;-62
2022/06/17 10:24:17;;;;;;;9.07;4.72;;;23.20;99.90;;;;;;4994267;28;20113;-62
2022/06/17 10:26:55;;;;;;;6.60;4.90;;;23.10;99.90;;;;;;5005976;28;20049;-62
2022/06/17 10:29:41;;;;;;;9.48;5.50;;;23.10;99.90;;;;;;5014779;28;20049;-62
2022/06/17 10:32:07;;;;;;;6.07;5.38;;;23.20;99.90;;;;;;4999650;28;20392;-62
2022/06/17 10:34:45;;;;;;;8.82;5.97;;;23.30;99.90;;;;;;5012380;28;20109;-62
2022/06/17 10:37:12;;;;;;;11.05;6.10;;;23.40;99.90;;;;;;5001461;28;20068;-62
2022/06/17 10:39:39;;;;;;;11.25;5.47;;;23.50;99.90;;;;;;5014777;28;20046;-62
2022/06/17 10:42:09;;;;;;;7.53;5.63;;;23.40;99.90;;;;;;5020968;28;20050;-62
2022/06/17 10:44:36;;;;;;;9.20;5.75;;;23.20;99.90;;;;;;5019915;28;20139;-62
2022/06/17 10:47:11;;;;;;;9.63;5.85;;;23.30;99.90;;;;;;5015717;28;20057;-63
2022/06/17 10:50:09;;;;;;;9.73;5.70;;;23.40;99.90;;;;;;5018801;28;20516;-62
2022/06/17 10:52:46;;;;;;;11.00;6.30;;;23.20;99.90;;;;;;4950388;28;20153;-63
2022/06/17 10:55:18;;;;;;;10.90;6.05;;;23.30;99.90;;;;;;4953684;28;20059;-63
2022/06/17 10:58:05;;;;;;;10.75;6.18;;;23.50;99.90;;;;;;4960027;28;20094;-63
2022/06/17 11:00:32;;;;;;;9.32;5.50;;;23.60;99.90;;;;;;4949428;28;20166;-62
2022/06/17 11:03:34;;;;;;;10.88;6.55;;;23.50;99.90;;;;;;4956877;28;20298;-63
2022/06/17 11:06:17;;;;;;;9.70;7.03;;;23.40;99.90;;;;;;4946939;28;20062;-63
2022/06/17 11:08:52;;;;;;;17.70;6.72;;;23.50;99.90;;;;;;4966286;28;20643;-63
2022/06/17 11:14:21;;;;;;;13.18;7.10;;;23.70;99.90;;;;;;4976227;28;20515;-63
2022/06/17 11:16:47;;;;;;;11.75;6.22;;;23.80;99.90;;;;;;4968072;28;20054;-63
2022/06/17 11:19:17;;;;;;;6.97;6.22;;;24.10;99.90;;;;;;4976719;28;20054;-63
2022/06/17 11:21:48;;;;;;;7.95;6.07;;;24.20;99.90;;;;;;4968291;28;20149;-63
2022/06/17 11:24:38;;;;;;;11.48;7.00;;;24.40;99.90;;;;;;4976309;28;20055;-63
2022/06/17 11:27:24;;;;;;;9.30;6.32;;;24.70;99.90;;;;;;4971317;28;20270;-64
2022/06/17 11:29:52;;;;;;;8.27;6.47;;;24.70;99.90;;;;;;5036841;28;20051;-63
2022/06/17 11:32:21;;;;;;;9.93;5.82;;;24.40;99.90;;;;;;5029722;28;20310;-63
2022/06/17 11:34:53;;;;;;;10.20;5.53;;;24.60;99.90;;;;;;5036458;28;20049;-61
2022/06/17 11:37:23;;;;;;;8.25;5.72;;;24.50;99.90;;;;;;5048385;28;20288;-61
2022/06/17 11:40:12;;;;;;;7.57;5.53;;;24.40;99.90;;;;;;5036949;28;20053;-61
2022/06/17 11:42:51;;;;;;;10.93;5.70;;;24.70;99.90;;;;;;5043218;28;20073;-62
2022/06/17 11:45:23;;;;;;;7.78;5.90;;;24.80;99.90;;;;;;5026426;28;20054;-65
2022/06/17 11:47:54;;;;;;;6.97;5.20;;;24.90;99.90;;;;;;5032957;28;20037;-63
2022/06/17 11:50:25;;;;;;;9.57;5.90;;;24.90;99.90;;;;;;5027727;28;20485;-64
2022/06/17 11:53:17;;;;;;;8.32;5.95;;;25.00;99.90;;;;;;5040797;28;20549;-63
2022/06/17 11:55:45;;;;;;;7.57;4.90;;;25.30;99.90;;;;;;5011545;28;20068;-63
2022/06/17 11:58:13;;;;;;;6.55;5.25;;;25.10;99.90;;;;;;5031440;28;20070;-63
2022/06/17 12:00:48;;;;;;;10.02;5.63;;;24.90;99.90;;;;;;5020110;28;20057;-63
2022/06/17 12:03:20;;;;;;;9.80;5.13;;;25.10;99.90;;;;;;5036174;28;20087;-63
2022/06/17 12:06:05;;;;;;;10.32;5.60;;;25.70;99.90;;;;;;5029288;28;20381;-63
2022/06/17 12:08:55;;;;;;;9.38;5.72;;;25.60;99.90;;;;;;5030714;28;20492;-61
2022/06/17 12:11:32;;;;;;;9.68;5.82;;;25.70;99.90;;;;;;5035276;28;20045;-61
2022/06/17 12:14:02;;;;;;;8.48;5.82;;;25.60;99.90;;;;;;5036388;28;20077;-61
2022/06/17 12:16:41;;;;;;;8.77;5.18;;;26.00;99.90;;;;;;5031512;28;20178;-62
2022/06/17 12:19:15;;;;;;;8.15;4.72;;;26.30;99.90;;;;;;5037597;28;20049;-63
2022/06/17 12:21:57;;;;;;;6.63;5.30;;;26.30;99.80;;;;;;5029109;28;20045;-63
2022/06/17 12:24:37;;;;;;;6.88;5.30;;;26.30;99.40;;;;;;5035928;28;20048;-63
2022/06/17 12:27:21;;;;;;;7.88;5.22;;;26.50;98.70;;;;;;5028892;28;20748;-63
2022/06/17 12:29:46;;;;;;;7.57;4.82;;;26.40;99.30;;;;;;5018550;28;20063;-63
2022/06/17 12:32:19;;;;;;;7.20;5.78;;;26.50;99.20;;;;;;5029390;28;20048;-63
2022/06/17 12:35:03;;;;;;;8.35;5.55;;;26.60;98.80;;;;;;5035623;28;20049;-63
2022/06/17 12:37:50;;;;;;;9.40;4.80;;;26.20;98.00;;;;;;5028440;28;20092;-63
2022/06/17 12:40:52;;;;;;;5.93;4.30;;;26.30;98.90;;;;;;5025656;28;20065;-63
2022/06/17 12:43:39;;;;;;;5.63;5.00;;;26.60;98.70;;;;;;4992551;28;20087;-63
2022/06/17 12:46:10;;;;;;;7.57;5.20;;;27.10;97.00;;;;;;5011210;28;20049;-63
2022/06/17 12:53:13;;;;;;;6.80;5.10;;;26.90;98.00;;;;;;5046711;28;20045;-63
2022/06/17 12:54:43;;;;;;;6.80;4.93;;;27.00;97.10;;;;;;5031629;28;20139;-63
2022/06/17 12:57:20;;;;;;;7.97;4.70;;;26.90;96.00;;;;;;5018888;28;20607;-63
2022/06/17 13:00:13;;;;;;;7.07;4.82;;;26.90;96.40;;;;;;5015711;28;20096;-63
2022/06/17 13:02:51;;;;;;;8.07;4.45;;;27.00;96.80;;;;;;5021186;28;20088;-61
2022/06/17 13:05:33;;;;;;;6.45;4.47;;;27.00;96.20;;;;;;5035343;28;20085;-61
2022/06/17 13:08:18;;;;;;;7.05;4.97;;;27.10;96.30;;;;;;5006759;28;20060;-62
2022/06/17 13:10:59;;;;;;;9.95;5.00;;;27.00;97.00;;;;;;5010937;28;20060;-61
2022/06/17 13:13:34;;;;;;;9.07;5.28;;;27.60;95.40;;;;;;5024089;28;20112;-61
2022/06/17 13:16:21;;;;;;;8.30;4.57;;;28.00;95.00;;;;;;5028192;28;20049;-61
2022/06/17 13:19:24;;;;;;;6.72;4.97;;;27.60;96.10;;;;;;5018686;28;20107;-63
2022/06/17 13:22:03;;;;;;;9.77;5.15;;;27.80;95.00;;;;;;5002556;28;20049;-61
2022/06/17 13:24:53;;;;;;;8.93;5.38;;;28.20;93.90;;;;;;5029677;28;20137;-61
2022/06/17 13:27:20;;;;;;;;;;;28.10;93.40;;;;;;5023372;28;20049;-64